createdAt,value
2022-11-13T00:00:34.423Z,10.18
2022-11-13T00:03:02.292Z,9.77
2022-11-13T00:05:30.450Z,10.80
2022-11-13T00:07:58.412Z,10.50
2022-11-13T00:10:26.328Z,10.15
2022-11-13T00:12:56.070Z,9.70
2022-11-13T00:15:24.095Z,10.15
2022-11-13T00:17:52.007Z,9.70
2022-11-13T00:20:20.093Z,9.02
2022-11-13T00:22:48.117Z,8.82
2022-11-13T00:25:16.181Z,9.48
2022-11-13T00:27:44.052Z,9.23
2022-11-13T00:30:19.043Z,9.30
2022-11-13T00:32:47.563Z,9.07
2022-11-13T00:35:15.534Z,9.23
2022-11-13T00:37:43.723Z,10.10
2022-11-13T00:40:12.320Z,10.25
2022-11-13T00:42:40.173Z,9.77
2022-11-13T00:45:09.598Z,9.70
2022-11-13T00:47:38.840Z,9.43
2022-11-13T00:50:07.423Z,9.32
2022-11-13T00:52:35.310Z,10.15
2022-11-13T00:55:03.249Z,9.70
2022-11-13T00:57:31.234Z,9.25
2022-11-13T00:59:59.122Z,9.32
2022-11-13T01:02:27.180Z,9.15
2022-11-13T01:04:56.432Z,8.57
2022-11-13T01:07:24.294Z,8.88
2022-11-13T01:09:52.454Z,8.48
2022-11-13T01:12:20.459Z,8.88
2022-11-13T01:14:48.444Z,8.10
2022-11-13T01:17:16.314Z,8.27
2022-11-13T01:19:44.223Z,7.47
2022-11-13T01:22:13.463Z,8.48
2022-11-13T01:24:41.447Z,8.65
2022-11-13T01:27:09.352Z,8.57
2022-11-13T01:29:39.043Z,8.55
2022-11-13T01:32:06.908Z,8.35
2022-11-13T01:34:35.192Z,8.38
2022-11-13T01:37:03.128Z,9.23
2022-11-13T01:39:33.010Z,7.63
2022-11-13T01:42:01.474Z,7.65
2022-11-13T01:44:48.227Z,8.02
2022-11-13T01:47:16.902Z,8.13
2022-11-13T01:49:47.264Z,8.55
2022-11-13T01:52:18.633Z,8.18
2022-11-13T01:54:51.682Z,8.05
2022-11-13T01:57:20.766Z,7.60
2022-11-13T01:59:52.435Z,8.27
2022-11-13T02:02:20.386Z,8.25
2022-11-13T02:04:48.539Z,8.52
2022-11-13T02:07:19.135Z,7.80
2022-11-13T02:09:50.780Z,8.07
2022-11-13T02:12:23.516Z,8.20
2022-11-13T02:14:54.939Z,7.32
2022-11-13T02:17:27.638Z,7.47
2022-11-13T02:19:59.754Z,8.63
2022-11-13T02:22:33.030Z,7.68
2022-11-13T02:25:04.040Z,7.82
2022-11-13T02:27:39.056Z,7.70
2022-11-13T02:30:16.658Z,8.02
2022-11-13T02:32:46.292Z,7.63
2022-11-13T02:35:16.093Z,7.65
2022-11-13T02:37:44.095Z,7.60
2022-11-13T02:40:14.197Z,7.38
2022-11-13T02:42:42.242Z,6.93
2022-11-13T02:45:11.052Z,6.95
2022-11-13T02:47:39.045Z,6.78
2022-11-13T02:50:08.822Z,6.72
2022-11-13T02:52:37.037Z,6.85
2022-11-13T02:55:05.452Z,7.13
2022-11-13T02:57:34.825Z,7.20
2022-11-13T03:00:03.030Z,6.25
2022-11-13T03:02:30.880Z,7.40
2022-11-13T03:05:11.905Z,7.00
2022-11-13T03:07:41.385Z,6.47
2022-11-13T03:10:10.846Z,6.78
2022-11-13T03:12:40.721Z,7.15
2022-11-13T03:15:10.355Z,7.10
2022-11-13T03:17:38.242Z,6.93
2022-11-13T03:20:07.906Z,7.10
2022-11-13T03:22:35.788Z,7.75
2022-11-13T03:25:08.932Z,6.30
2022-11-13T03:27:39.584Z,7.80
2022-11-13T03:30:08.862Z,7.63
2022-11-13T03:32:36.739Z,6.80
2022-11-13T03:35:05.136Z,7.10
2022-11-13T03:37:33.087Z,7.18
2022-11-13T03:40:00.937Z,7.00
2022-11-13T03:42:29.015Z,6.65
2022-11-13T03:44:58.253Z,6.70
2022-11-13T03:47:26.112Z,7.30
2022-11-13T03:49:53.978Z,6.32
2022-11-13T03:52:21.869Z,7.03
2022-11-13T03:54:49.712Z,6.25
2022-11-13T03:57:17.592Z,6.70
2022-11-13T03:59:45.524Z,7.22
2022-11-13T04:02:14.945Z,6.05
2022-11-13T04:04:42.816Z,6.72
2022-11-13T04:07:10.712Z,6.38
2022-11-13T04:09:38.814Z,6.15
2022-11-13T04:12:07.237Z,6.18
2022-11-13T04:14:35.108Z,5.93
2022-11-13T04:17:03.020Z,6.55
2022-11-13T04:19:32.281Z,6.70
2022-11-13T04:22:00.145Z,6.07
2022-11-13T04:24:28.106Z,6.43
2022-11-13T04:26:56.546Z,5.15
2022-11-13T04:29:24.430Z,6.60
2022-11-13T04:31:52.472Z,5.93
2022-11-13T04:34:20.368Z,6.10
2022-11-13T04:36:49.564Z,5.90
2022-11-13T04:39:17.505Z,6.10
2022-11-13T04:42:02.690Z,6.63
2022-11-13T04:44:30.552Z,5.60
2022-11-13T04:46:58.524Z,6.10
2022-11-13T04:49:26.443Z,5.18
2022-11-13T04:51:55.641Z,5.68
2022-11-13T04:54:28.528Z,6.20
2022-11-13T04:56:56.892Z,5.32
2022-11-13T04:59:24.797Z,5.30
2022-11-13T05:01:52.743Z,5.60
2022-11-13T05:04:20.839Z,5.85
2022-11-13T05:06:48.836Z,5.68
2022-11-13T05:09:18.097Z,4.53
2022-11-13T05:11:46.034Z,4.85
2022-11-13T05:14:14.725Z,5.32
2022-11-13T05:16:42.610Z,4.60
2022-11-13T05:19:10.647Z,5.10
2022-11-13T05:21:39.952Z,4.72
2022-11-13T05:24:10.839Z,4.78
2022-11-13T05:26:40.755Z,5.22
2022-11-13T05:29:08.623Z,5.05
2022-11-13T05:31:36.631Z,4.78
2022-11-13T05:34:06.169Z,5.10
2022-11-13T05:36:34.282Z,6.50
2022-11-13T05:39:02.278Z,6.85
2022-11-13T05:41:31.098Z,9.57
2022-11-13T05:44:00.367Z,17.25
2022-11-13T05:46:29.689Z,11.35
2022-11-13T05:48:59.824Z,7.32
2022-11-13T05:51:29.975Z,5.05
2022-11-13T05:53:58.211Z,4.95
2022-11-13T05:56:28.251Z,5.90
2022-11-13T05:58:56.771Z,5.88
2022-11-13T06:01:28.581Z,5.22
2022-11-13T06:03:57.354Z,5.50
2022-11-13T06:06:26.730Z,5.82
2022-11-13T06:08:56.867Z,5.25
2022-11-13T06:11:26.616Z,5.30
2022-11-13T06:13:55.886Z,5.00
2022-11-13T06:16:26.526Z,5.38
2022-11-13T06:18:57.370Z,5.40
2022-11-13T06:21:28.384Z,4.88
2022-11-13T06:23:57.691Z,6.55
2022-11-13T06:26:27.476Z,6.13
2022-11-13T06:28:55.514Z,5.20
2022-11-13T06:31:26.332Z,4.65
2022-11-13T06:33:54.615Z,5.03
2022-11-13T06:36:24.315Z,4.65
2022-11-13T06:38:52.407Z,7.03
2022-11-13T06:41:26.431Z,6.80
2022-11-13T06:46:30.275Z,6.30
2022-11-13T06:48:58.261Z,6.80
2022-11-13T06:51:28.567Z,6.85
2022-11-13T06:53:57.059Z,6.57
2022-11-13T06:56:25.252Z,6.20
2022-11-13T06:58:53.486Z,6.22
2022-11-13T07:01:22.834Z,5.78
2022-11-13T07:03:52.256Z,6.25
2022-11-13T07:06:22.629Z,6.00
2022-11-13T07:08:50.607Z,6.50
2022-11-13T07:11:20.547Z,6.95
2022-11-13T07:13:48.752Z,7.95
2022-11-13T07:16:18.297Z,8.35
2022-11-13T07:18:52.525Z,9.73
2022-11-13T07:23:49.356Z,8.02
2022-11-13T07:26:17.673Z,8.75
2022-11-13T07:28:45.969Z,7.97
2022-11-13T07:31:15.522Z,7.18
2022-11-13T07:33:43.924Z,6.78
2022-11-13T07:36:13.235Z,6.43
2022-11-13T07:38:41.139Z,6.80
2022-11-13T07:41:09.246Z,7.20
2022-11-13T07:43:37.170Z,6.97
2022-11-13T07:46:05.262Z,7.40
2022-11-13T07:48:33.291Z,7.07
2022-11-13T07:51:02.452Z,6.80
2022-11-13T07:53:31.970Z,6.88
2022-11-13T07:56:02.773Z,6.85
2022-11-13T07:58:31.758Z,7.03
2022-11-13T08:01:04.481Z,7.05
2022-11-13T08:03:32.970Z,6.97
2022-11-13T08:06:02.845Z,6.57
2022-11-13T08:08:32.395Z,7.35
2022-11-13T08:11:03.829Z,7.38
2022-11-13T08:13:31.747Z,7.53
2022-11-13T08:16:00.635Z,7.20
2022-11-13T08:18:30.532Z,6.55
2022-11-13T08:20:58.848Z,6.10
2022-11-13T08:23:26.799Z,6.25
2022-11-13T08:25:55.999Z,6.97
2022-11-13T08:28:24.513Z,6.90
2022-11-13T08:30:52.428Z,6.93
2022-11-13T08:33:20.335Z,10.73
2022-11-13T08:35:58.961Z,9.00
2022-11-13T08:38:28.098Z,8.07
2022-11-13T08:41:04.404Z,8.43
2022-11-13T08:43:35.293Z,8.40
2022-11-13T08:46:03.996Z,7.60
2022-11-13T08:48:32.209Z,7.88
2022-11-13T08:51:00.251Z,8.25
2022-11-13T08:53:28.236Z,8.57
2022-11-13T08:55:56.135Z,7.47
2022-11-13T08:58:25.413Z,7.75
2022-11-13T09:00:53.368Z,6.90
2022-11-13T09:03:21.350Z,7.05
2022-11-13T09:05:49.225Z,6.25
2022-11-13T09:08:17.157Z,7.22
2022-11-13T09:10:45.083Z,7.55
2022-11-13T09:13:13.251Z,6.75
2022-11-13T09:15:43.279Z,6.68
2022-11-13T09:18:11.656Z,7.22
2022-11-13T09:20:39.506Z,6.95
2022-11-13T09:23:09.274Z,7.15
2022-11-13T09:25:38.359Z,6.70
2022-11-13T09:28:07.579Z,6.90
2022-11-13T09:30:35.536Z,6.85
2022-11-13T09:33:05.148Z,7.03
2022-11-13T09:35:36.700Z,6.57
2022-11-13T09:38:11.304Z,6.15
2022-11-13T09:40:44.206Z,6.47
2022-11-13T09:43:29.821Z,6.40
2022-11-13T09:46:03.757Z,5.97
2022-11-13T09:48:37.831Z,6.20
2022-11-13T09:53:38.414Z,5.88
2022-11-13T09:56:20.170Z,6.18
2022-11-13T09:58:52.442Z,5.80
2022-11-13T10:01:27.684Z,6.78
2022-11-13T10:04:04.128Z,5.60
2022-11-13T10:06:45.090Z,7.25
2022-11-13T10:09:26.169Z,6.22
2022-11-13T10:11:56.638Z,6.47
2022-11-13T10:14:29.614Z,6.68
2022-11-13T10:17:02.352Z,6.13
2022-11-13T10:19:37.359Z,6.07
2022-11-13T10:22:31.685Z,5.35
2022-11-13T10:25:06.669Z,6.10
2022-11-13T10:30:02.979Z,5.30
2022-11-13T10:32:34.062Z,4.50
2022-11-13T10:35:38.282Z,4.22
2022-11-13T10:38:10.139Z,3.60
2022-11-13T10:40:40.330Z,3.97
2022-11-13T10:43:15.359Z,3.45
2022-11-13T10:45:54.438Z,4.35
2022-11-13T10:48:24.199Z,3.00
2022-11-13T10:50:58.459Z,3.58
2022-11-13T10:53:28.366Z,3.35
2022-11-13T10:55:58.827Z,3.60
2022-11-13T10:58:27.117Z,3.95
2022-11-13T11:00:55.339Z,3.10
2022-11-13T11:03:25.602Z,3.67
2022-11-13T11:05:57.210Z,3.00
2022-11-13T11:08:31.010Z,3.08
2022-11-13T11:11:19.273Z,3.25
2022-11-13T11:13:47.292Z,2.95
2022-11-13T11:16:20.915Z,3.20
2022-11-13T11:18:54.683Z,3.20
2022-11-13T11:21:28.441Z,2.83
2022-11-13T11:24:01.694Z,2.78
2022-11-13T11:26:33.739Z,2.97
2022-11-13T11:29:17.286Z,2.90
2022-11-13T11:31:51.570Z,2.70
2022-11-13T11:37:00.007Z,2.67
2022-11-13T11:39:32.683Z,2.95
2022-11-13T11:42:14.347Z,2.65
2022-11-13T11:44:52.213Z,2.75
2022-11-13T11:47:20.155Z,2.40
2022-11-13T11:49:48.081Z,2.67
2022-11-13T11:52:33.445Z,2.55
2022-11-13T11:55:14.501Z,2.75
2022-11-13T11:57:51.197Z,4.25
2022-11-13T12:00:20.642Z,2.50
2022-11-13T12:03:12.102Z,3.08
2022-11-13T12:05:46.400Z,2.60
2022-11-13T12:08:27.463Z,2.40
2022-11-13T12:11:03.918Z,2.45
2022-11-13T12:13:34.758Z,2.67
2022-11-13T12:16:10.591Z,2.70
2022-11-13T12:18:49.207Z,2.63
2022-11-13T12:21:25.564Z,2.60
2022-11-13T12:24:23.835Z,2.53
2022-11-13T12:27:01.287Z,2.47
2022-11-13T12:29:41.777Z,2.50
2022-11-13T12:32:24.478Z,1.98
2022-11-13T12:34:54.784Z,1.92
2022-11-13T12:37:28.947Z,2.80
2022-11-13T12:42:34.342Z,2.10
2022-11-13T12:45:10.279Z,2.38
2022-11-13T12:47:38.862Z,2.42
2022-11-13T12:50:21.364Z,2.08
2022-11-13T12:53:00.372Z,1.80
2022-11-13T12:55:31.939Z,2.40
2022-11-13T12:58:09.729Z,1.80
2022-11-13T13:00:40.831Z,2.58
2022-11-13T13:03:28.285Z,2.20
2022-11-13T13:06:13.395Z,2.47
2022-11-13T13:09:14.461Z,2.50
2022-11-13T13:11:54.338Z,2.28
2022-11-13T13:14:36.818Z,1.90
2022-11-13T13:17:17.858Z,2.28
2022-11-13T13:19:46.347Z,2.10
2022-11-13T13:22:27.100Z,2.05
2022-11-13T13:25:01.889Z,2.30
2022-11-13T13:27:35.141Z,2.60
2022-11-13T13:30:17.027Z,2.00
2022-11-13T13:33:10.007Z,2.30
2022-11-13T13:35:49.682Z,2.20
2022-11-13T13:38:24.942Z,2.40
2022-11-13T13:41:10.453Z,2.60
2022-11-13T13:43:54.548Z,2.38
2022-11-13T13:46:25.809Z,2.38
2022-11-13T13:48:57.943Z,2.10
2022-11-13T13:51:29.566Z,2.55
2022-11-13T13:54:00.241Z,1.83
2022-11-13T13:56:28.453Z,2.10
2022-11-13T13:58:57.740Z,2.17
2022-11-13T14:01:30.306Z,2.13
2022-11-13T14:04:06.323Z,2.10
2022-11-13T14:06:34.234Z,1.90
2022-11-13T14:09:12.319Z,1.75
2022-11-13T14:11:40.176Z,2.22
2022-11-13T14:14:11.326Z,1.98
2022-11-13T14:16:49.362Z,1.80
2022-11-13T14:19:17.288Z,1.73
2022-11-13T14:21:46.865Z,1.70
2022-11-13T14:24:23.456Z,1.90
2022-11-13T14:26:53.858Z,1.80
2022-11-13T14:29:32.446Z,2.40
2022-11-13T14:32:05.547Z,3.10
2022-11-13T14:34:33.620Z,7.25
2022-11-13T14:37:16.476Z,10.60
2022-11-13T14:39:48.417Z,8.85
2022-11-13T14:42:19.556Z,5.20
2022-11-13T14:44:49.458Z,5.82
2022-11-13T14:47:25.968Z,2.78
2022-11-13T14:49:54.274Z,3.75
2022-11-13T14:52:23.878Z,2.67
2022-11-13T14:55:18.842Z,2.78
2022-11-13T14:57:49.729Z,2.65
2022-11-13T15:00:20.661Z,2.75
2022-11-13T15:02:48.512Z,2.42
2022-11-13T15:05:16.522Z,2.25
2022-11-13T15:07:46.787Z,2.50
2022-11-13T15:10:18.710Z,3.13
2022-11-13T15:12:46.673Z,3.08
2022-11-13T15:15:16.226Z,3.08
2022-11-13T15:17:46.596Z,3.33
2022-11-13T15:20:19.590Z,8.02
2022-11-13T15:22:47.598Z,8.95
2022-11-13T15:25:17.039Z,11.35
2022-11-13T15:27:45.158Z,16.42
2022-11-13T15:30:13.747Z,23.95
2022-11-13T15:32:41.925Z,28.10
2022-11-13T15:35:19.449Z,20.13
2022-11-13T15:37:47.426Z,15.43
2022-11-13T15:40:15.968Z,12.55
2022-11-13T15:42:44.862Z,7.95
2022-11-13T15:45:16.102Z,8.57
2022-11-13T15:47:44.095Z,6.38
2022-11-13T15:50:15.296Z,5.63
2022-11-13T15:52:46.497Z,5.10
2022-11-13T15:55:22.071Z,5.45
2022-11-13T15:57:50.234Z,4.90
2022-11-13T16:00:21.336Z,5.57
2022-11-13T16:02:50.707Z,5.53
2022-11-13T16:05:19.970Z,5.78
2022-11-13T16:07:47.889Z,5.80
2022-11-13T16:10:17.269Z,5.97
2022-11-13T16:12:46.250Z,6.47
2022-11-13T16:15:16.670Z,6.28
2022-11-13T16:17:48.306Z,6.78
2022-11-13T16:20:19.264Z,11.43
2022-11-13T16:22:47.128Z,9.40
2022-11-13T16:25:18.068Z,13.93
2022-11-13T16:27:46.940Z,16.42
2022-11-13T16:30:16.488Z,13.45
2022-11-13T16:32:44.773Z,8.70
2022-11-13T16:35:16.318Z,15.73
2022-11-13T16:37:45.796Z,19.38
2022-11-13T16:40:21.653Z,13.60
2022-11-13T16:42:49.835Z,12.80
2022-11-13T16:45:17.913Z,12.80
2022-11-13T16:47:46.450Z,13.57
2022-11-13T16:50:15.995Z,13.68
2022-11-13T16:52:45.205Z,10.95
2022-11-13T16:55:13.639Z,11.02
2022-11-13T16:57:41.718Z,9.82
2022-11-13T17:00:13.899Z,9.43
2022-11-13T17:02:41.916Z,9.80
2022-11-13T17:05:13.543Z,9.77
2022-11-13T17:07:41.656Z,9.63
2022-11-13T17:13:01.753Z,9.77
2022-11-13T17:15:29.777Z,8.73
2022-11-13T17:17:58.492Z,9.93
2022-11-13T17:20:27.026Z,10.82
2022-11-13T17:22:55.399Z,10.65
2022-11-13T17:25:26.775Z,9.68
2022-11-13T17:27:54.883Z,9.90
2022-11-13T17:30:22.988Z,9.88
2022-11-13T17:32:51.103Z,9.73
2022-11-13T17:35:18.952Z,7.82
2022-11-13T17:37:46.906Z,7.43
2022-11-13T17:40:14.878Z,8.10
2022-11-13T17:42:44.210Z,8.82
2022-11-13T17:45:12.230Z,7.65
2022-11-13T17:47:40.152Z,8.13
2022-11-13T17:50:08.840Z,7.85
2022-11-13T17:52:36.820Z,7.53
2022-11-13T17:55:06.326Z,7.43
2022-11-13T17:57:34.340Z,7.57
2022-11-13T18:00:04.833Z,8.45
2022-11-13T18:02:34.099Z,9.55
2022-11-13T18:05:04.214Z,9.18
2022-11-13T18:07:32.619Z,9.13
2022-11-13T18:10:00.503Z,7.72
2022-11-13T18:12:28.740Z,7.60
2022-11-13T18:14:56.637Z,6.80
2022-11-13T18:17:25.995Z,7.32
2022-11-13T18:20:00.393Z,6.78
2022-11-13T18:22:29.941Z,6.63
2022-11-13T18:24:57.798Z,6.95
2022-11-13T18:27:25.673Z,8.05
2022-11-13T18:29:53.554Z,7.80
2022-11-13T18:32:21.662Z,6.85
2022-11-13T18:34:50.877Z,6.85
2022-11-13T18:37:18.743Z,7.38
2022-11-13T18:39:46.711Z,6.72
2022-11-13T18:42:14.745Z,7.57
2022-11-13T18:44:42.584Z,7.93
2022-11-13T18:47:10.440Z,6.63
2022-11-13T18:49:38.361Z,7.60
2022-11-13T18:52:07.659Z,6.97
2022-11-13T18:54:35.572Z,7.97
2022-11-13T18:57:03.491Z,7.00
2022-11-13T18:59:32.440Z,6.95
2022-11-13T19:02:00.498Z,7.00
2022-11-13T19:04:28.412Z,7.05
2022-11-13T19:06:57.249Z,7.45
2022-11-13T19:09:26.783Z,7.65
2022-11-13T19:11:55.292Z,19.67
2022-11-13T19:14:23.242Z,14.73
2022-11-13T19:16:51.145Z,21.70
2022-11-13T19:19:20.622Z,9.48
2022-11-13T19:21:49.346Z,7.38
2022-11-13T19:24:17.425Z,7.05
2022-11-13T19:26:47.210Z,6.53
2022-11-13T19:29:15.369Z,6.70
2022-11-13T19:31:44.940Z,6.45
2022-11-13T19:34:13.728Z,7.22
2022-11-13T19:36:46.223Z,7.43
2022-11-13T19:39:15.403Z,7.38
2022-11-13T19:41:44.898Z,7.25
2022-11-13T19:44:15.853Z,8.02
2022-11-13T19:46:47.918Z,7.70
2022-11-13T19:49:16.202Z,7.70
2022-11-13T19:51:44.347Z,11.18
2022-11-13T19:54:12.513Z,14.50
2022-11-13T19:56:41.237Z,9.98
2022-11-13T19:59:11.960Z,17.73
2022-11-13T20:01:42.941Z,15.27
2022-11-13T20:04:13.183Z,14.52
2022-11-13T20:06:41.145Z,7.88
2022-11-13T20:09:08.999Z,7.82
2022-11-13T20:11:37.066Z,7.95
2022-11-13T20:14:04.925Z,8.55
2022-11-13T20:16:32.827Z,8.73
2022-11-13T20:19:02.053Z,9.52
2022-11-13T20:21:31.429Z,8.95
2022-11-13T20:24:00.622Z,8.00
2022-11-13T20:26:28.856Z,7.60
2022-11-13T20:28:56.740Z,7.38
2022-11-13T20:31:25.931Z,6.90
2022-11-13T20:33:56.133Z,7.47
2022-11-13T20:36:25.701Z,7.75
2022-11-13T20:38:55.707Z,7.72
2022-11-13T20:41:24.607Z,7.28
2022-11-13T20:43:53.299Z,7.13
2022-11-13T20:46:21.908Z,6.95
2022-11-13T20:48:50.012Z,7.40
2022-11-13T20:51:20.670Z,7.70
2022-11-13T20:53:50.385Z,7.15
2022-11-13T20:56:19.971Z,7.30
2022-11-13T20:58:48.184Z,6.53
2022-11-13T21:01:18.250Z,6.75
2022-11-13T21:03:47.009Z,6.55
2022-11-13T21:06:16.462Z,7.53
2022-11-13T21:08:44.920Z,7.22
2022-11-13T21:11:16.738Z,7.80
2022-11-13T21:13:44.601Z,7.53
2022-11-13T21:16:12.545Z,7.90
2022-11-13T21:18:40.451Z,8.35
2022-11-13T21:21:10.170Z,7.15
2022-11-13T21:23:38.801Z,7.90
2022-11-13T21:26:08.170Z,8.23
2022-11-13T21:28:38.133Z,8.07
2022-11-13T21:31:08.398Z,7.90
2022-11-13T21:33:37.823Z,8.20
2022-11-13T21:36:06.712Z,7.85
2022-11-13T21:38:34.851Z,8.38
2022-11-13T21:41:22.369Z,11.25
2022-11-13T21:43:53.017Z,15.93
2022-11-13T21:46:21.572Z,10.60
2022-11-13T21:48:50.396Z,11.10
2022-11-13T21:51:18.238Z,7.82
2022-11-13T21:53:46.100Z,9.23
2022-11-13T21:56:15.950Z,9.88
2022-11-13T21:58:44.371Z,8.60
2022-11-13T22:01:14.482Z,8.45
2022-11-13T22:03:42.712Z,7.93
2022-11-13T22:06:19.347Z,8.27
2022-11-13T22:08:48.664Z,8.82
2022-11-13T22:11:16.584Z,8.93
2022-11-13T22:13:44.644Z,8.57
2022-11-13T22:16:14.034Z,9.35
2022-11-13T22:18:42.419Z,10.23
2022-11-13T22:21:12.722Z,10.13
2022-11-13T22:23:40.853Z,10.02
2022-11-13T22:26:10.655Z,8.50
2022-11-13T22:28:40.638Z,8.90
2022-11-13T22:31:13.871Z,8.20
2022-11-13T22:33:48.148Z,8.80
2022-11-13T22:36:19.014Z,9.00
2022-11-13T22:38:46.882Z,9.05
2022-11-13T22:41:22.669Z,9.85
2022-11-13T22:43:53.151Z,9.18
2022-11-13T22:46:22.580Z,8.82
2022-11-13T22:48:53.263Z,9.35
2022-11-13T22:51:23.145Z,9.82
2022-11-13T22:53:52.543Z,10.65
2022-11-13T22:56:22.043Z,10.52
2022-11-13T22:58:50.111Z,10.30
2022-11-13T23:01:20.009Z,9.13
2022-11-13T23:03:49.717Z,9.05
2022-11-13T23:06:21.543Z,9.98
2022-11-13T23:08:50.388Z,10.90
2022-11-13T23:11:20.543Z,10.98
2022-11-13T23:13:50.416Z,10.20
2022-11-13T23:16:19.187Z,10.90
2022-11-13T23:18:48.029Z,11.52
2022-11-13T23:21:18.072Z,11.38
2022-11-13T23:23:46.263Z,11.90
2022-11-13T23:26:15.367Z,11.63
2022-11-13T23:28:43.637Z,11.57
2022-11-13T23:31:11.999Z,12.75
2022-11-13T23:33:41.056Z,12.35
2022-11-13T23:36:11.028Z,11.85
2022-11-13T23:38:40.254Z,11.05
2022-11-13T23:41:08.760Z,13.10
2022-11-13T23:44:07.143Z,13.55
2022-11-13T23:46:24.527Z,13.13
2022-11-13T23:48:52.377Z,13.77
2022-11-13T23:51:20.272Z,15.20
2022-11-13T23:53:49.640Z,14.00
2022-11-13T23:56:17.552Z,13.98
2022-11-13T23:58:45.421Z,15.63
